Mercer County Airport Bluefield US
ICAO: KBLF
IATA: BLF
Category: Medium
Scheduled Services: Yes

Elevation: 2857 ft
TransAlt. 18000 ft.

Airport Communications:
ASOS:132.725
INDIANAPOLIS CNTR:126.575
CTAF:122.9
ELKINS RDO:122.2

KBLF Zoom In..

Runways:

(A) RW 05 length 4743 ft width 100 ft
---- / hdg 49

(B) RW 23 length 4743 ft width 100 ft
ILS 109.50 / hdg 229

Location; KBLF
Day. 14 / Time. 13.52 Zulu
* Altimeter: 30.15
* Temperature: 19° c. 66.2°f.
* Wind from: 260° Speed 05 kn.
Dewpoint: 17° c.
Visibility: 10 Statute Miles.
Clouds: Broken 1200 ft.

KBLF 141352Z AUTO 26005KT 10SM BKN012 19/17 A3015 RMK AO2 SLP179 T01890172


Wind From 260°
Speed 05 kn.

 
 
jpsmedia.com for Web Design worldairports.se 2018   terms of use